Date,TemperatureHighF,TemperatureAvgF,TemperatureLowF,DewpointHighF,DewpointAvgF,DewpointLowF,HumidityHigh,HumidityAvg,HumidityLow,PressureMaxIn,PressureMinIn,WindSpeedMaxMPH,WindSpeedAvgMPH,GustSpeedMaxMPH,PrecipitationSumIn
2013-3-1,39,31,28,29,25,20,92,79,60,30.09,29.95,4,1,13,0.06
2013-3-2,32,28,25,24,21,18,84,75,66,30.10,30.06,9,3,23,0.00
2013-3-3,43,26,16,21,15,12,84,65,30,30.08,30.02,9,3,23,0.01
2013-3-4,40,28,14,28,20,11,89,73,51,30.09,29.96,7,2,19,0.00
2013-3-5,33,30,28,30,28,26,95,91,79,29.96,29.72,8,4,25,0.00
2013-3-6,36,32,28,31,28,25,94,87,79,30.23,29.88,9,4,24,0.01
2013-3-7,46,35,28,30,26,22,89,73,48,30.35,30.22,6,3,14,0.21
2013-3-8,48,31,17,27,22,15,93,71,44,30.45,30.29,6,2,19,0.00
2013-3-9,44,36,27,34,29,21,81,75,60,30.29,29.86,8,3,27,0.00
2013-3-10,57,46,37,48,41,34,94,83,69,29.86,29.64,8,2,27,0.33
2013-3-11,50,41,32,48,38,30,95,91,84,29.76,29.54,12,6,41,0.09
2013-3-12,39,32,28,30,26,21,93,78,56,29.95,29.77,15,4,44,0.01
2013-3-13,40,29,23,22,18,14,87,63,39,30.27,29.95,12,6,33,0.01
2013-3-14,45,31,21,28,19,14,81,63,39,30.27,30.13,8,4,25,0.00
2013-3-15,50,37,28,40,33,27,96,86,60,30.06,29.69,9,2,17,0.14
2013-3-16,37,34,30,36,30,23,96,88,77,30.06,29.63,7,2,21,0.00
2013-3-17,39,32,29,25,22,20,78,67,51,30.15,29.97,10,3,28,0.00
2013-3-18,29,29,28,26,24,22,89,80,76,29.97,29.73,10,7,28,0.00
2013-3-19,44,32,26,31,24,15,81,71,49,30.26,29.92,13,3,32,0.67
2013-3-20,32,23,18,16,10,6,80,56,36,29.92,29.86,16,9,33,0.00
2013-3-21,40,25,14,17,10,6,76,56,36,29.90,29.84,12,6,24,0.00
2013-3-22,48,30,17,20,17,12,84,60,32,29.93,29.85,9,2,21,0.00
2013-3-23,48,34,24,26,23,19,84,67,40,29.99,29.86,5,2,19,0.00
2013-3-24,38,32,28,28,24,22,91,73,55,29.88,29.56,14,6,41,0.00
2013-3-25,42,34,28,31,28,26,91,79,60,30.03,29.60,9,4,30,0.18
2013-3-26,49,37,31,31,28,25,94,72,44,30.23,30.03,10,5,31,0.08
2013-3-27,51,38,28,29,25,19,82,61,37,30.30,30.23,9,4,26,0.00
2013-3-28,36,31,28,31,28,25,94,87,78,30.60,30.16,10,4,24,0.00
2013-3-29,46,35,30,30,26,23,88,73,47,30.72,30.59,7,3,18,0.22
2013-3-30,48,31,17,27,22,15,92,72,43,30.82,30.70,7,2,21,0.00
2013-3-31,59,34,27,34,25,20,80,72,37,30.71,30.05,18,3,45,0.94